createdAt,value
2023-03-05T00:00:11.408Z,5.46
2023-03-05T00:01:11.360Z,5.43
2023-03-05T00:02:11.412Z,5.46
2023-03-05T00:03:11.391Z,5.46
2023-03-05T00:04:11.341Z,5.31
2023-03-05T00:05:11.320Z,5.32
2023-03-05T00:06:11.310Z,5.31
2023-03-05T00:07:11.310Z,5.30
2023-03-05T00:08:11.285Z,5.35
2023-03-05T00:09:11.291Z,5.27
2023-03-05T00:10:11.286Z,5.25
2023-03-05T00:11:11.256Z,5.17
2023-03-05T00:12:11.237Z,5.09
2023-03-05T00:13:11.226Z,5.10
2023-03-05T00:14:11.215Z,5.16
2023-03-05T00:15:11.212Z,5.12
2023-03-05T00:16:11.281Z,5.13
2023-03-05T00:17:11.180Z,5.12
2023-03-05T00:18:11.180Z,5.04
2023-03-05T00:19:11.169Z,5.05
2023-03-05T00:20:11.163Z,5.04
2023-03-05T00:21:11.140Z,5.02
2023-03-05T00:22:11.125Z,4.89
2023-03-05T00:23:11.138Z,4.96
2023-03-05T00:24:11.157Z,5.13
2023-03-05T00:25:11.101Z,4.99
2023-03-05T00:26:11.087Z,4.96
2023-03-05T00:27:11.082Z,5.04
2023-03-05T00:28:11.063Z,4.91
2023-03-05T00:29:11.070Z,4.98
2023-03-05T00:30:11.057Z,4.94
2023-03-05T00:31:11.113Z,4.88
2023-03-05T00:32:11.079Z,4.88
2023-03-05T00:33:11.015Z,4.84
2023-03-05T00:34:11.005Z,4.77
2023-03-05T00:35:11.010Z,4.75
2023-03-05T00:36:10.978Z,4.73
2023-03-05T00:37:10.973Z,4.69
2023-03-05T00:38:10.960Z,4.69
2023-03-05T00:39:10.966Z,4.57
2023-03-05T00:40:11.015Z,4.57
2023-03-05T00:41:10.926Z,4.69
2023-03-05T00:42:10.918Z,4.67
2023-03-05T00:43:10.902Z,4.55
2023-03-05T00:44:10.896Z,4.59
2023-03-05T00:45:10.894Z,4.57
2023-03-05T00:46:10.896Z,4.58
2023-03-05T00:47:10.860Z,4.55
2023-03-05T00:48:10.849Z,4.57
2023-03-05T00:49:10.853Z,4.61
2023-03-05T00:50:10.845Z,4.61
2023-03-05T00:51:10.816Z,4.59
2023-03-05T00:52:10.805Z,4.54
2023-03-05T00:53:10.797Z,4.47
2023-03-05T00:54:10.791Z,4.50
2023-03-05T00:55:10.806Z,4.55
2023-03-05T00:56:10.761Z,4.50
2023-03-05T00:57:10.756Z,4.54
2023-03-05T00:58:10.754Z,4.55
2023-03-05T00:59:10.729Z,4.46
2023-03-05T01:00:10.747Z,4.39
2023-03-05T01:01:10.730Z,4.50
2023-03-05T01:02:10.695Z,4.44
2023-03-05T01:03:10.680Z,4.42
2023-03-05T01:04:10.673Z,4.50
2023-03-05T01:05:10.714Z,4.46
2023-03-05T01:06:10.645Z,4.47
2023-03-05T01:07:10.630Z,4.50
2023-03-05T01:08:10.625Z,4.51
2023-03-05T01:09:10.612Z,4.47
2023-03-05T01:10:10.617Z,4.46
2023-03-05T01:11:10.607Z,4.39
2023-03-05T01:12:18.499Z,4.39
2023-03-05T01:13:10.560Z,4.50
2023-03-05T01:14:10.587Z,4.58
2023-03-05T01:15:10.552Z,4.44
2023-03-05T01:16:10.583Z,4.52
2023-03-05T01:17:10.522Z,4.51
2023-03-05T01:18:10.506Z,4.47
2023-03-05T01:19:10.500Z,4.57
2023-03-05T01:20:10.493Z,4.51
2023-03-05T01:21:10.475Z,4.50
2023-03-05T01:22:10.462Z,4.51
2023-03-05T01:23:10.447Z,4.40
2023-03-05T01:24:10.432Z,4.43
2023-03-05T01:25:10.443Z,4.37
2023-03-05T01:26:10.409Z,4.34
2023-03-05T01:27:10.423Z,4.40
2023-03-05T01:28:10.389Z,4.29
2023-03-05T01:29:10.376Z,4.28
2023-03-05T01:30:10.415Z,4.42
2023-03-05T01:31:10.373Z,4.34
2023-03-05T01:32:10.379Z,4.36
2023-03-05T01:33:10.335Z,4.36
2023-03-05T01:34:10.321Z,4.42
2023-03-05T01:35:10.344Z,4.40
2023-03-05T01:36:10.305Z,4.43
2023-03-05T01:37:10.298Z,4.52
2023-03-05T01:38:10.284Z,4.52
2023-03-05T01:39:10.274Z,4.55
2023-03-05T01:40:10.288Z,4.52
2023-03-05T01:41:10.253Z,4.39
2023-03-05T01:42:10.252Z,4.42
2023-03-05T01:43:10.254Z,4.47
2023-03-05T01:44:10.221Z,4.37
2023-03-05T01:45:10.281Z,4.37
2023-03-05T01:46:10.230Z,4.42
2023-03-05T01:47:10.182Z,4.39
2023-03-05T01:48:10.180Z,4.37
2023-03-05T01:49:10.163Z,4.43
2023-03-05T01:50:10.184Z,4.36
2023-03-05T01:51:10.141Z,4.42
2023-03-05T01:52:10.139Z,4.42
2023-03-05T01:53:10.118Z,4.28
2023-03-05T01:54:10.130Z,4.29
2023-03-05T01:55:10.115Z,4.26
2023-03-05T01:56:10.086Z,4.26
2023-03-05T01:57:10.086Z,4.24
2023-03-05T01:58:10.064Z,4.28
2023-03-05T01:59:10.107Z,4.25
2023-03-05T02:00:10.064Z,4.15
2023-03-05T02:01:10.072Z,4.16
2023-03-05T02:02:10.018Z,4.19
2023-03-05T02:03:10.011Z,4.16
2023-03-05T02:04:10.104Z,4.14
2023-03-05T02:05:10.010Z,4.12
2023-03-05T02:06:09.987Z,4.08
2023-03-05T02:07:09.964Z,4.04
2023-03-05T02:08:09.963Z,4.07
2023-03-05T02:09:09.942Z,4.04
2023-03-05T02:10:09.957Z,4.08
2023-03-05T02:11:09.929Z,4.03
2023-03-05T02:12:09.914Z,4.00
2023-03-05T02:13:09.900Z,4.06
2023-03-05T02:14:10.347Z,4.06
2023-03-05T02:15:09.921Z,4.06
2023-03-05T02:16:09.900Z,4.06
2023-03-05T02:17:09.860Z,4.08
2023-03-05T02:18:09.863Z,4.04
2023-03-05T02:19:09.836Z,4.03
2023-03-05T02:20:09.858Z,4.06
2023-03-05T02:21:09.828Z,3.97
2023-03-05T02:22:09.815Z,4.00
2023-03-05T02:23:09.792Z,3.97
2023-03-05T02:24:09.793Z,3.90
2023-03-05T02:25:09.790Z,3.98
2023-03-05T02:26:09.773Z,3.98
2023-03-05T02:27:09.759Z,3.94
2023-03-05T02:28:09.750Z,3.96
2023-03-05T02:29:09.735Z,4.01
2023-03-05T02:30:09.746Z,3.98
2023-03-05T02:31:09.731Z,4.06
2023-03-05T02:32:09.872Z,4.07
2023-03-05T02:33:09.696Z,4.10
2023-03-05T02:34:09.682Z,4.00
2023-03-05T02:35:09.682Z,3.92
2023-03-05T02:36:09.657Z,4.01
2023-03-05T02:37:09.647Z,4.07
2023-03-05T02:38:09.637Z,4.06
2023-03-05T02:39:09.641Z,4.08
2023-03-05T02:40:09.639Z,4.12
2023-03-05T02:41:09.612Z,4.04
2023-03-05T02:42:09.594Z,3.98
2023-03-05T02:43:09.585Z,4.07
2023-03-05T02:44:09.573Z,4.04
2023-03-05T02:45:09.560Z,3.98
2023-03-05T02:46:09.670Z,4.03
2023-03-05T02:47:09.566Z,3.96
2023-03-05T02:48:09.541Z,3.98
2023-03-05T02:49:09.520Z,3.85
2023-03-05T02:50:09.518Z,3.96
2023-03-05T02:51:09.524Z,3.92
2023-03-05T02:52:09.528Z,3.90
2023-03-05T02:53:09.474Z,3.79
2023-03-05T02:54:09.510Z,3.85
2023-03-05T02:55:09.478Z,3.89
2023-03-05T02:56:09.469Z,3.86
2023-03-05T02:57:09.438Z,3.83
2023-03-05T02:58:09.433Z,3.85
2023-03-05T02:59:09.456Z,3.83
2023-03-05T03:00:09.497Z,3.83
2023-03-05T03:01:09.487Z,3.94
2023-03-05T03:02:09.380Z,3.86
2023-03-05T03:03:09.483Z,3.86
2023-03-05T03:04:09.362Z,3.82
2023-03-05T03:05:09.350Z,3.86
2023-03-05T03:06:09.349Z,3.78
2023-03-05T03:07:09.328Z,3.82
2023-03-05T03:08:09.315Z,3.88
2023-03-05T03:09:09.302Z,3.80
2023-03-05T03:10:09.330Z,3.78
2023-03-05T03:11:09.334Z,3.78
2023-03-05T03:12:09.270Z,3.75
2023-03-05T03:13:09.262Z,3.72
2023-03-05T03:14:09.253Z,3.83
2023-03-05T03:15:09.240Z,3.79
2023-03-05T03:16:09.263Z,3.80
2023-03-05T03:17:09.217Z,3.80
2023-03-05T03:18:09.207Z,3.70
2023-03-05T03:19:09.218Z,3.70
2023-03-05T03:20:09.206Z,3.83
2023-03-05T03:21:09.192Z,3.83
2023-03-05T03:22:09.181Z,3.82
2023-03-05T03:23:09.154Z,3.85
2023-03-05T03:24:09.147Z,3.79
2023-03-05T03:25:09.135Z,3.88
2023-03-05T03:26:09.139Z,3.92
2023-03-05T03:27:09.119Z,3.86
2023-03-05T03:28:09.105Z,3.96
2023-03-05T03:29:09.108Z,3.89
2023-03-05T03:30:09.091Z,3.88
2023-03-05T03:31:09.149Z,3.96
2023-03-05T03:32:09.149Z,3.85
2023-03-05T03:33:09.056Z,3.86
2023-03-05T03:34:09.046Z,3.82
2023-03-05T03:35:09.065Z,3.89
2023-03-05T03:36:09.038Z,3.89
2023-03-05T03:37:09.021Z,3.88
2023-03-05T03:38:09.000Z,3.82
2023-03-05T03:39:08.997Z,3.83
2023-03-05T03:40:08.972Z,3.88
2023-03-05T03:41:08.995Z,3.94
2023-03-05T03:42:08.965Z,3.89
2023-03-05T03:43:08.948Z,3.98
2023-03-05T03:44:08.926Z,3.96
2023-03-05T03:45:08.924Z,3.82
2023-03-05T03:46:09.024Z,3.88
2023-03-05T03:47:08.903Z,3.85
2023-03-05T03:48:08.888Z,3.88
2023-03-05T03:49:08.879Z,3.86
2023-03-05T03:50:08.870Z,3.65
2023-03-05T03:51:08.901Z,3.71
2023-03-05T03:52:08.843Z,3.71
2023-03-05T03:53:08.851Z,3.75
2023-03-05T03:54:08.831Z,3.75
2023-03-05T03:55:08.814Z,3.88
2023-03-05T03:56:08.837Z,3.83
2023-03-05T03:57:08.798Z,3.79
2023-03-05T03:58:08.780Z,3.89
2023-03-05T03:59:08.775Z,3.88
2023-03-05T04:00:08.767Z,3.80
2023-03-05T04:01:08.768Z,3.78
2023-03-05T04:02:08.767Z,3.78
2023-03-05T04:03:08.728Z,3.70
2023-03-05T04:04:08.861Z,3.72
2023-03-05T04:05:08.726Z,3.78
2023-03-05T04:06:08.716Z,3.71
2023-03-05T04:07:08.701Z,3.68
2023-03-05T04:08:08.673Z,3.68
2023-03-05T04:09:08.683Z,3.64
2023-03-05T04:10:08.661Z,3.64
2023-03-05T04:11:08.656Z,3.54
2023-03-05T04:12:08.635Z,3.53
2023-03-05T04:13:08.658Z,3.47
2023-03-05T04:14:08.611Z,3.50
2023-03-05T04:15:08.606Z,3.44
2023-03-05T04:16:08.645Z,3.39
2023-03-05T04:17:08.589Z,3.36
2023-03-05T04:18:08.568Z,3.30
2023-03-05T04:19:08.560Z,3.30
2023-03-05T04:20:08.553Z,3.24
2023-03-05T04:21:08.585Z,3.21
2023-03-05T04:22:08.525Z,3.20
2023-03-05T04:23:08.541Z,3.33
2023-03-05T04:24:08.501Z,3.30
2023-03-05T04:25:08.578Z,3.30
2023-03-05T04:26:08.506Z,3.27
2023-03-05T04:27:08.470Z,3.27
2023-03-05T04:28:08.460Z,3.40
2023-03-05T04:29:08.457Z,3.33
2023-03-05T04:30:08.437Z,3.36
2023-03-05T04:31:08.450Z,3.42
2023-03-05T04:32:08.461Z,3.42
2023-03-05T04:33:08.420Z,3.36
2023-03-05T04:34:08.392Z,3.36
2023-03-05T04:35:08.384Z,3.28
2023-03-05T04:36:08.392Z,3.31
2023-03-05T04:37:08.368Z,3.24
2023-03-05T04:38:08.350Z,3.21
2023-03-05T04:39:08.365Z,3.34
2023-03-05T04:40:08.347Z,3.34
2023-03-05T04:41:08.338Z,3.34
2023-03-05T04:42:08.306Z,3.24
2023-03-05T04:43:08.294Z,3.21
2023-03-05T04:44:08.279Z,3.24
2023-03-05T04:45:08.277Z,3.24
2023-03-05T04:46:08.329Z,3.27
2023-03-05T04:47:08.249Z,3.23
2023-03-05T04:48:08.245Z,3.15
2023-03-05T04:49:08.231Z,3.09
2023-03-05T04:50:08.241Z,3.13
2023-03-05T04:51:08.257Z,3.10
2023-03-05T04:52:08.200Z,3.07
2023-03-05T04:53:08.190Z,3.16
2023-03-05T04:54:08.173Z,3.20
2023-03-05T04:55:08.187Z,3.18
2023-03-05T04:56:08.177Z,3.16
2023-03-05T04:57:08.146Z,3.13
2023-03-05T04:58:08.135Z,3.16
2023-03-05T04:59:08.124Z,3.10
2023-03-05T05:00:08.117Z,3.06
2023-03-05T05:01:08.124Z,3.02
2023-03-05T05:02:08.105Z,3.09
2023-03-05T05:03:08.138Z,3.06
2023-03-05T05:04:08.072Z,3.10
2023-03-05T05:05:08.065Z,3.13
2023-03-05T05:06:08.076Z,3.13
2023-03-05T05:07:08.052Z,3.13
2023-03-05T05:08:08.039Z,3.13
2023-03-05T05:09:08.016Z,3.09
2023-03-05T05:10:08.018Z,3.13
2023-03-05T05:11:08.045Z,3.03
2023-03-05T05:12:07.994Z,3.12
2023-03-05T05:13:07.979Z,3.09
2023-03-05T05:14:07.973Z,3.07
2023-03-05T05:15:07.957Z,3.09
2023-03-05T05:16:08.084Z,3.00
2023-03-05T05:17:07.936Z,3.00
2023-03-05T05:18:07.928Z,3.06
2023-03-05T05:19:08.009Z,3.12
2023-03-05T05:20:07.910Z,3.07
2023-03-05T05:21:07.909Z,3.03
2023-03-05T05:22:07.880Z,3.02
2023-03-05T05:23:07.870Z,2.98
2023-03-05T05:24:07.879Z,3.00
2023-03-05T05:25:07.879Z,3.12
2023-03-05T05:26:07.850Z,2.98
2023-03-05T05:27:07.849Z,3.03
2023-03-05T05:28:07.818Z,2.92
2023-03-05T05:29:07.818Z,2.82
2023-03-05T05:30:07.831Z,2.82
2023-03-05T05:31:07.879Z,2.69
2023-03-05T05:32:07.845Z,2.87
2023-03-05T05:33:07.769Z,2.82
2023-03-05T05:34:07.758Z,2.73
2023-03-05T05:35:07.752Z,2.85
2023-03-05T05:36:07.759Z,2.73
2023-03-05T05:37:07.725Z,2.85
2023-03-05T05:38:07.719Z,2.89
2023-03-05T05:39:07.701Z,2.91
2023-03-05T05:40:07.691Z,2.94
2023-03-05T05:41:07.726Z,2.92
2023-03-05T05:42:07.676Z,2.91
2023-03-05T05:43:07.692Z,2.95
2023-03-05T05:44:07.651Z,2.92
2023-03-05T05:45:07.730Z,3.05
2023-03-05T05:46:07.791Z,3.02
2023-03-05T05:47:07.616Z,3.05
2023-03-05T05:48:07.614Z,3.12
2023-03-05T05:49:07.597Z,3.05
2023-03-05T05:50:07.584Z,3.06
2023-03-05T05:51:07.594Z,3.12
2023-03-05T05:52:07.563Z,3.02
2023-03-05T05:53:07.558Z,2.98
2023-03-05T05:54:07.543Z,3.05
2023-03-05T05:55:07.532Z,3.09
2023-03-05T05:56:07.537Z,3.10
2023-03-05T05:57:07.519Z,3.15
2023-03-05T05:58:07.498Z,3.20
2023-03-05T05:59:07.514Z,3.20
2023-03-05T06:00:07.475Z,3.28
2023-03-05T06:01:07.481Z,3.42
2023-03-05T06:02:07.512Z,3.42
2023-03-05T06:03:07.465Z,3.40
2023-03-05T06:04:07.434Z,3.42
2023-03-05T06:05:07.424Z,3.36
2023-03-05T06:06:07.431Z,3.40
2023-03-05T06:07:07.412Z,3.40
2023-03-05T06:08:07.393Z,3.44
2023-03-05T06:09:07.386Z,3.36
2023-03-05T06:10:07.400Z,3.40
2023-03-05T06:11:07.371Z,3.34
2023-03-05T06:12:07.368Z,3.43
2023-03-05T06:13:07.340Z,3.39
2023-03-05T06:14:07.333Z,3.31
2023-03-05T06:15:07.338Z,3.33
2023-03-05T06:16:07.367Z,3.42
2023-03-05T06:17:07.298Z,3.30
2023-03-05T06:18:07.284Z,3.40
2023-03-05T06:19:07.285Z,3.34
2023-03-05T06:20:07.259Z,3.39
2023-03-05T06:21:07.271Z,3.46
2023-03-05T06:22:07.245Z,3.39
2023-03-05T06:23:07.235Z,3.46
2023-03-05T06:24:07.224Z,3.46
2023-03-05T06:25:07.211Z,3.39
2023-03-05T06:26:07.229Z,3.39
2023-03-05T06:27:07.190Z,3.42
2023-03-05T06:28:07.179Z,3.40
2023-03-05T06:29:07.173Z,3.49
2023-03-05T06:30:07.161Z,3.42
2023-03-05T06:31:07.231Z,3.50
2023-03-05T06:32:07.173Z,3.49
2023-03-05T06:33:07.212Z,3.53
2023-03-05T06:34:07.115Z,3.54
2023-03-05T06:35:07.111Z,3.65
2023-03-05T06:36:07.116Z,3.65
2023-03-05T06:37:07.087Z,3.64
2023-03-05T06:38:07.074Z,3.68
2023-03-05T06:39:07.066Z,3.76
2023-03-05T06:40:07.050Z,3.68
2023-03-05T06:41:07.066Z,3.65
2023-03-05T06:42:07.034Z,3.72
2023-03-05T06:43:07.021Z,3.65
2023-03-05T06:44:07.015Z,3.70
2023-03-05T06:45:07.006Z,3.65
2023-03-05T06:46:07.049Z,3.86
2023-03-05T06:47:07.009Z,3.92
2023-03-05T06:48:06.963Z,3.96
2023-03-05T06:49:06.980Z,4.01
2023-03-05T06:50:06.954Z,4.08
2023-03-05T06:51:06.931Z,4.10
2023-03-05T06:52:06.939Z,4.22
2023-03-05T06:53:06.916Z,4.22
2023-03-05T06:54:06.898Z,4.34
2023-03-05T06:55:06.891Z,4.29
2023-03-05T06:56:06.877Z,4.25
2023-03-05T06:57:06.880Z,4.25
2023-03-05T06:58:06.876Z,4.32
2023-03-05T06:59:06.855Z,4.32
2023-03-05T07:00:06.833Z,4.39
2023-03-05T07:01:06.843Z,4.39
2023-03-05T07:02:06.889Z,4.34
2023-03-05T07:03:06.834Z,4.34
2023-03-05T07:04:06.813Z,4.22
2023-03-05T07:05:06.790Z,4.25
2023-03-05T07:06:06.767Z,4.32
2023-03-05T07:07:06.776Z,4.26
2023-03-05T07:08:06.749Z,4.15
2023-03-05T07:09:06.746Z,4.25
2023-03-05T07:10:06.725Z,4.19
2023-03-05T07:11:06.717Z,4.14
2023-03-05T07:12:06.732Z,4.21
2023-03-05T07:13:14.577Z,4.07
2023-03-05T07:14:06.684Z,4.25
2023-03-05T07:15:06.674Z,4.19
2023-03-05T07:16:06.684Z,4.16
2023-03-05T07:17:06.670Z,4.25
2023-03-05T07:18:06.660Z,4.25
2023-03-05T07:19:06.654Z,4.25
2023-03-05T07:20:06.623Z,4.33
2023-03-05T07:21:06.609Z,4.33
2023-03-05T07:22:06.611Z,4.28
2023-03-05T07:23:06.597Z,4.32
2023-03-05T07:24:06.592Z,4.40
2023-03-05T07:25:06.567Z,4.43
2023-03-05T07:26:06.556Z,4.32
2023-03-05T07:27:06.556Z,4.33
2023-03-05T07:28:06.534Z,4.40
2023-03-05T07:29:06.524Z,4.37
2023-03-05T07:30:06.512Z,4.39
2023-03-05T07:31:06.605Z,4.37
2023-03-05T07:32:06.540Z,4.42
2023-03-05T07:33:06.496Z,4.43
2023-03-05T07:34:06.485Z,4.51
2023-03-05T07:35:06.484Z,4.44
2023-03-05T07:36:06.445Z,4.44
2023-03-05T07:37:06.472Z,4.43
2023-03-05T07:38:06.466Z,4.47
2023-03-05T07:39:06.481Z,4.42
2023-03-05T07:40:06.403Z,4.40
2023-03-05T07:41:06.394Z,4.39
2023-03-05T07:42:06.423Z,4.50
2023-03-05T07:43:06.376Z,4.52
2023-03-05T07:44:06.363Z,4.39
2023-03-05T07:45:06.358Z,4.51
2023-03-05T07:46:06.403Z,4.50
2023-03-05T07:47:06.347Z,4.39
2023-03-05T07:48:06.321Z,4.51
2023-03-05T07:49:06.311Z,4.54
2023-03-05T07:50:06.301Z,4.51
2023-03-05T07:51:06.307Z,4.47
2023-03-05T07:52:06.306Z,4.51
2023-03-05T07:53:06.265Z,4.47
2023-03-05T07:54:06.256Z,4.58
2023-03-05T07:55:06.243Z,4.52
2023-03-05T07:56:06.233Z,4.57
2023-03-05T07:57:06.237Z,4.61
2023-03-05T07:58:06.212Z,4.54
2023-03-05T07:59:06.220Z,4.55
2023-03-05T08:00:06.189Z,4.73
2023-03-05T08:01:06.178Z,4.61
2023-03-05T08:02:06.229Z,4.73
2023-03-05T08:03:06.180Z,4.76
2023-03-05T08:04:06.239Z,4.88
2023-03-05T08:05:06.143Z,4.86
2023-03-05T08:06:06.125Z,5.01
2023-03-05T08:07:06.144Z,5.01
2023-03-05T08:08:06.109Z,5.02
2023-03-05T08:09:06.089Z,5.19
2023-03-05T08:10:06.142Z,5.45
2023-03-05T08:11:06.072Z,5.70
2023-03-05T08:12:06.073Z,5.88
2023-03-05T08:13:06.049Z,5.88
2023-03-05T08:14:06.043Z,6.13
2023-03-05T08:15:06.063Z,6.11
2023-03-05T08:16:06.081Z,6.33
2023-03-05T08:17:06.154Z,6.68
2023-03-05T08:18:06.002Z,6.86
2023-03-05T08:19:05.984Z,7.05
2023-03-05T08:20:05.975Z,7.32
2023-03-05T08:21:05.964Z,7.52
2023-03-05T08:22:05.971Z,8.00
2023-03-05T08:23:05.977Z,8.40
2023-03-05T08:24:05.952Z,8.84
2023-03-05T08:25:05.921Z,8.87
2023-03-05T08:26:05.910Z,9.18
2023-03-05T08:27:05.895Z,9.39
2023-03-05T08:28:05.908Z,9.63
2023-03-05T08:29:05.874Z,9.93
2023-03-05T08:30:05.875Z,9.99
2023-03-05T08:31:05.910Z,10.21
2023-03-05T08:32:05.853Z,10.53
2023-03-05T08:33:05.849Z,10.84
2023-03-05T08:34:05.827Z,11.46
2023-03-05T08:35:05.809Z,11.87
2023-03-05T08:36:05.800Z,12.02
2023-03-05T08:37:05.786Z,12.08
2023-03-05T08:38:05.827Z,11.78
2023-03-05T08:39:05.782Z,11.56
2023-03-05T08:40:05.754Z,11.41
2023-03-05T08:41:05.748Z,11.29
2023-03-05T08:42:08.610Z,10.98
2023-03-05T08:43:05.773Z,10.62
2023-03-05T08:44:05.708Z,10.36
2023-03-05T08:45:05.695Z,9.89
2023-03-05T08:46:05.685Z,9.61
2023-03-05T08:47:05.686Z,9.27
2023-03-05T08:48:05.670Z,8.90
2023-03-05T08:49:05.656Z,8.60
2023-03-05T08:50:05.664Z,8.60
2023-03-05T08:51:05.657Z,8.47
2023-03-05T08:52:05.647Z,8.33
2023-03-05T08:53:05.610Z,8.44
2023-03-05T08:54:05.602Z,8.36
2023-03-05T08:55:05.626Z,8.21
2023-03-05T08:56:05.579Z,7.97
2023-03-05T08:57:05.578Z,7.85
2023-03-05T08:58:05.560Z,7.75
2023-03-05T08:59:05.553Z,7.71
2023-03-05T09:00:05.536Z,7.63
2023-03-05T09:01:05.539Z,7.60
2023-03-05T09:02:05.621Z,7.44
2023-03-05T09:03:05.522Z,7.40
2023-03-05T09:04:05.493Z,7.55
2023-03-05T09:05:05.480Z,7.84
2023-03-05T09:06:05.502Z,8.32
2023-03-05T09:07:05.469Z,8.50
2023-03-05T09:08:05.454Z,8.51
2023-03-05T09:09:05.444Z,8.87
2023-03-05T09:10:05.425Z,9.32
2023-03-05T09:11:05.445Z,9.43
2023-03-05T09:12:05.418Z,9.45
2023-03-05T09:13:05.413Z,9.43
2023-03-05T09:14:05.382Z,9.39
2023-03-05T09:15:05.373Z,9.31
2023-03-05T09:16:05.419Z,9.28
2023-03-05T09:17:05.398Z,9.09
2023-03-05T09:18:05.348Z,8.93
2023-03-05T09:19:05.326Z,8.66
2023-03-05T09:20:05.315Z,8.45
2023-03-05T09:21:05.348Z,8.33
2023-03-05T09:22:05.317Z,8.21
2023-03-05T09:23:05.283Z,7.97
2023-03-05T09:24:05.274Z,7.92
2023-03-05T09:25:05.276Z,7.75
2023-03-05T09:26:05.250Z,7.74
2023-03-05T09:27:05.282Z,7.45
2023-03-05T09:28:05.232Z,7.44
2023-03-05T09:29:05.215Z,7.29
2023-03-05T09:30:05.210Z,7.02
2023-03-05T09:31:05.204Z,7.02
2023-03-05T09:32:05.329Z,6.91
2023-03-05T09:33:05.176Z,6.86
2023-03-05T09:34:05.163Z,6.79
2023-03-05T09:35:05.151Z,6.71
2023-03-05T09:36:05.140Z,6.62
2023-03-05T09:37:05.157Z,6.40
2023-03-05T09:38:05.151Z,6.33
2023-03-05T09:39:05.125Z,6.35
2023-03-05T09:40:05.137Z,6.25
2023-03-05T09:41:05.107Z,6.21
2023-03-05T09:42:05.076Z,6.13
2023-03-05T09:43:05.098Z,6.13
2023-03-05T09:44:05.059Z,6.14
2023-03-05T09:45:05.043Z,6.04
2023-03-05T09:46:05.059Z,6.06
2023-03-05T09:47:05.016Z,5.93
2023-03-05T09:48:05.028Z,5.93
2023-03-05T09:49:04.996Z,6.01
2023-03-05T09:50:04.990Z,6.04
2023-03-05T09:51:04.983Z,6.11
2023-03-05T09:52:05.040Z,6.14
2023-03-05T09:53:04.967Z,6.22
2023-03-05T09:54:04.944Z,6.25
2023-03-05T09:55:04.932Z,6.30
2023-03-05T09:56:04.928Z,6.29
2023-03-05T09:57:04.912Z,6.41
2023-03-05T09:58:04.920Z,6.54
2023-03-05T09:59:04.907Z,6.62
2023-03-05T10:00:04.882Z,6.69
2023-03-05T10:01:04.872Z,6.69
2023-03-05T10:02:04.857Z,6.62
2023-03-05T10:03:04.881Z,6.76
2023-03-05T10:04:04.897Z,6.73
2023-03-05T10:05:04.823Z,6.76
2023-03-05T10:06:04.819Z,6.65
2023-03-05T10:07:04.802Z,6.51
2023-03-05T10:08:04.807Z,6.50
2023-03-05T10:09:04.792Z,6.32
2023-03-05T10:10:04.773Z,6.22
2023-03-05T10:11:04.759Z,6.28
2023-03-05T10:12:04.753Z,6.29
2023-03-05T10:13:04.752Z,6.21
2023-03-05T10:14:04.801Z,6.14
2023-03-05T10:15:04.742Z,6.11
2023-03-05T10:16:04.711Z,6.03
2023-03-05T10:17:04.698Z,5.98
2023-03-05T10:18:04.684Z,5.98
2023-03-05T10:19:04.699Z,5.93
2023-03-05T10:20:04.664Z,5.88
2023-03-05T10:21:04.650Z,5.88
2023-03-05T10:22:04.642Z,5.88
2023-03-05T10:23:04.643Z,5.93
2023-03-05T10:24:04.621Z,5.93
2023-03-05T10:25:04.606Z,5.88
2023-03-05T10:26:04.599Z,5.95
2023-03-05T10:27:04.618Z,5.96
2023-03-05T10:28:04.589Z,5.98
2023-03-05T10:29:04.571Z,5.96
2023-03-05T10:30:04.554Z,5.91
2023-03-05T10:31:04.559Z,5.78
2023-03-05T10:32:04.612Z,5.71
2023-03-05T10:33:04.533Z,5.49
2023-03-05T10:34:04.532Z,5.57
2023-03-05T10:35:04.501Z,5.48
2023-03-05T10:36:04.488Z,5.41
2023-03-05T10:37:04.477Z,5.41
2023-03-05T10:38:04.482Z,5.48
2023-03-05T10:39:04.695Z,5.43
2023-03-05T10:40:04.453Z,5.49
2023-03-05T10:41:04.445Z,5.48
2023-03-05T10:42:04.425Z,5.50
2023-03-05T10:43:04.422Z,5.49
2023-03-05T10:44:04.428Z,5.55
2023-03-05T10:45:04.394Z,5.56
2023-03-05T10:46:04.459Z,5.68
2023-03-05T10:47:04.387Z,5.73
2023-03-05T10:48:04.363Z,5.81
2023-03-05T10:49:04.366Z,5.89
2023-03-05T10:50:04.339Z,5.88
2023-03-05T10:51:04.329Z,5.96
2023-03-05T10:52:04.333Z,6.09
2023-03-05T10:53:04.319Z,6.16
2023-03-05T10:54:04.297Z,6.28
2023-03-05T10:55:04.304Z,6.28
2023-03-05T10:56:04.282Z,6.33
2023-03-05T10:57:04.264Z,6.33
2023-03-05T10:58:04.302Z,6.32
2023-03-05T10:59:04.246Z,6.30
2023-03-05T11:00:04.244Z,6.13
2023-03-05T11:01:04.445Z,6.14
2023-03-05T11:02:04.258Z,6.13
2023-03-05T11:03:04.302Z,6.03
2023-03-05T11:04:04.190Z,6.04
2023-03-05T11:05:05.244Z,6.04
2023-03-05T11:06:04.162Z,6.03
2023-03-05T11:07:04.162Z,6.09
2023-03-05T11:08:04.168Z,6.06
2023-03-05T11:09:04.131Z,6.03
2023-03-05T11:10:04.114Z,6.04
2023-03-05T11:11:04.232Z,5.96
2023-03-05T11:12:04.096Z,5.86
2023-03-05T11:13:04.116Z,5.78
2023-03-05T11:14:04.082Z,5.88
2023-03-05T11:15:04.116Z,5.77
2023-03-05T11:16:04.106Z,5.82
2023-03-05T11:17:04.044Z,5.78
2023-03-05T11:18:04.053Z,5.77
2023-03-05T11:19:04.074Z,5.81
2023-03-05T11:20:04.054Z,5.86
2023-03-05T11:21:04.023Z,5.78
2023-03-05T11:22:03.997Z,5.83
2023-03-05T11:23:03.996Z,5.88
2023-03-05T11:24:03.983Z,5.92
2023-03-05T11:25:03.971Z,5.92
2023-03-05T11:26:03.944Z,5.88
2023-03-05T11:27:03.935Z,5.71
2023-03-05T11:28:03.947Z,5.78
2023-03-05T11:29:03.911Z,5.73
2023-03-05T11:30:03.918Z,5.75
2023-03-05T11:31:04.023Z,5.68
2023-03-05T11:32:03.899Z,5.66
2023-03-05T11:33:03.879Z,5.64
2023-03-05T11:34:03.860Z,5.63
2023-03-05T11:35:03.882Z,5.56
2023-03-05T11:36:03.838Z,5.52
2023-03-05T11:37:03.908Z,5.56
2023-03-05T11:38:03.830Z,5.48
2023-03-05T11:39:03.802Z,5.45
2023-03-05T11:40:03.793Z,5.48
2023-03-05T11:41:03.777Z,5.50
2023-03-05T11:42:03.796Z,5.46
2023-03-05T11:43:03.787Z,5.48
2023-03-05T11:44:03.758Z,5.41
2023-03-05T11:45:03.748Z,5.50
2023-03-05T11:46:03.817Z,5.53
2023-03-05T11:47:03.714Z,5.67
2023-03-05T11:48:03.722Z,5.74
2023-03-05T11:49:03.696Z,5.74
2023-03-05T11:50:03.684Z,5.75
2023-03-05T11:51:03.691Z,5.83
2023-03-05T11:52:03.665Z,5.88
2023-03-05T11:53:03.665Z,5.95
2023-03-05T11:54:03.642Z,5.92
2023-03-05T11:55:03.640Z,6.09
2023-03-05T11:56:03.641Z,6.00
2023-03-05T11:57:03.608Z,6.03
2023-03-05T11:58:03.612Z,5.96
2023-03-05T11:59:03.592Z,5.81
2023-03-05T12:00:03.582Z,5.68
2023-03-05T12:01:03.614Z,5.64
2023-03-05T12:02:03.573Z,5.56
2023-03-05T12:03:03.655Z,5.53
2023-03-05T12:04:03.559Z,5.48
2023-03-05T12:05:03.527Z,5.31
2023-03-05T12:06:03.516Z,5.17
2023-03-05T12:07:03.546Z,5.20
2023-03-05T12:08:03.542Z,5.19
2023-03-05T12:09:03.485Z,5.28
2023-03-05T12:10:03.496Z,5.22
2023-03-05T12:11:03.464Z,5.27
2023-03-05T12:12:03.487Z,5.20
2023-03-05T12:13:03.444Z,5.20
2023-03-05T12:14:03.434Z,5.04
2023-03-05T12:15:03.439Z,5.12
2023-03-05T12:16:03.421Z,5.07
2023-03-05T12:17:03.400Z,5.17
2023-03-05T12:18:03.406Z,5.13
2023-03-05T12:19:03.380Z,5.30
2023-03-05T12:20:03.380Z,5.28
2023-03-05T12:21:03.360Z,5.34
2023-03-05T12:22:03.344Z,5.52
2023-03-05T12:23:03.380Z,5.55
2023-03-05T12:24:03.336Z,5.68
2023-03-05T12:25:03.335Z,5.71
2023-03-05T12:26:03.305Z,5.86
2023-03-05T12:27:03.369Z,5.95
2023-03-05T12:28:03.329Z,6.06
2023-03-05T12:29:03.280Z,6.16
2023-03-05T12:30:03.274Z,6.18
2023-03-05T12:31:03.264Z,6.28
2023-03-05T12:32:03.281Z,6.19
2023-03-05T12:33:03.267Z,6.29
2023-03-05T12:34:03.567Z,6.29
2023-03-05T12:35:03.213Z,6.48
2023-03-05T12:36:03.267Z,6.40
2023-03-05T12:37:03.184Z,6.36
2023-03-05T12:38:17.249Z,6.41
2023-03-05T12:39:04.186Z,6.51
2023-03-05T12:40:03.153Z,6.61
2023-03-05T12:41:03.139Z,6.65
2023-03-05T12:42:03.165Z,6.68
2023-03-05T12:43:03.176Z,6.83
2023-03-05T12:44:03.109Z,6.86
2023-03-05T12:45:03.098Z,6.89
2023-03-05T12:46:03.088Z,6.91
2023-03-05T12:47:03.167Z,6.84
2023-03-05T12:48:03.094Z,6.86
2023-03-05T12:49:03.152Z,6.81
2023-03-05T12:50:03.044Z,6.71
2023-03-05T12:51:03.033Z,6.61
2023-03-05T12:52:03.028Z,6.61
2023-03-05T12:53:03.033Z,6.65
2023-03-05T12:54:03.000Z,6.61
2023-03-05T12:55:03.006Z,6.63
2023-03-05T12:56:02.976Z,6.72
2023-03-05T12:57:02.968Z,6.69
2023-03-05T12:58:03.013Z,6.69
2023-03-05T12:59:02.948Z,6.69
2023-03-05T13:00:02.945Z,6.73
2023-03-05T13:01:03.018Z,6.65
2023-03-05T13:02:02.918Z,6.66
2023-03-05T13:03:02.938Z,6.54
2023-03-05T13:04:02.935Z,6.36
2023-03-05T13:05:02.880Z,6.33
2023-03-05T13:06:02.865Z,6.32
2023-03-05T13:07:02.864Z,6.25
2023-03-05T13:08:02.858Z,6.25
2023-03-05T13:09:02.828Z,6.18
2023-03-05T13:10:02.818Z,6.07
2023-03-05T13:11:02.837Z,6.11
2023-03-05T13:12:02.908Z,6.16
2023-03-05T13:13:02.795Z,6.18
2023-03-05T13:14:02.829Z,6.10
2023-03-05T13:15:02.781Z,6.13
2023-03-05T13:16:02.823Z,6.26
2023-03-05T13:17:02.754Z,6.29
2023-03-05T13:18:02.745Z,6.33